createdAt,value
2022-08-11T00:01:25.345Z,20.69
2022-08-11T00:04:14.432Z,20.57
2022-08-11T00:07:05.389Z,20.57
2022-08-11T00:09:54.670Z,20.62
2022-08-11T00:12:45.054Z,20.60
2022-08-11T00:15:44.725Z,20.71
2022-08-11T00:18:42.868Z,20.72
2022-08-11T00:22:03.035Z,20.56
2022-08-11T00:24:53.392Z,20.51
2022-08-11T00:27:43.940Z,20.48
2022-08-11T00:30:39.815Z,20.38
2022-08-11T00:33:45.167Z,20.43
2022-08-11T00:36:47.486Z,20.31
2022-08-11T00:39:47.117Z,20.28
2022-08-11T00:42:52.276Z,20.26
2022-08-11T00:45:51.349Z,20.24
2022-08-11T00:49:00.810Z,20.23
2022-08-11T00:52:28.468Z,20.11
2022-08-11T00:55:55.758Z,20.13
2022-08-11T00:59:47.612Z,20.14
2022-08-11T01:03:02.818Z,20.02
2022-08-11T01:06:23.019Z,20.04
2022-08-11T01:09:53.786Z,19.98
2022-08-11T01:13:17.017Z,19.90
2022-08-11T01:17:11.043Z,19.71
2022-08-11T01:20:48.436Z,19.62
2022-08-11T01:23:48.573Z,19.51
2022-08-11T01:26:47.992Z,19.43
2022-08-11T01:30:31.822Z,19.55
2022-08-11T01:33:53.735Z,19.55
2022-08-11T01:37:37.485Z,19.51
2022-08-11T01:40:59.686Z,19.46
2022-08-11T01:44:16.049Z,19.40
2022-08-11T01:47:53.489Z,19.48
2022-08-11T01:51:00.342Z,19.47
2022-08-11T01:54:04.860Z,19.46
2022-08-11T01:57:21.826Z,19.52
2022-08-11T02:00:25.004Z,19.48
2022-08-11T02:03:27.416Z,19.52
2022-08-11T02:06:56.586Z,19.44
2022-08-11T02:10:36.413Z,19.40
2022-08-11T02:13:49.132Z,19.53
2022-08-11T02:16:55.791Z,19.52
2022-08-11T02:20:36.841Z,19.50
2022-08-11T02:24:04.912Z,19.43
2022-08-11T02:27:00.861Z,19.41
2022-08-11T02:30:09.991Z,19.35
2022-08-11T02:33:24.090Z,19.29
2022-08-11T02:36:21.801Z,19.21
2022-08-11T02:39:13.485Z,19.16
2022-08-11T02:42:35.105Z,19.06
2022-08-11T02:45:46.205Z,19.00
2022-08-11T02:49:02.515Z,18.92
2022-08-11T02:52:18.400Z,18.97
2022-08-11T02:55:56.110Z,18.78
2022-08-11T02:59:48.383Z,18.40
2022-08-11T03:03:13.548Z,18.00
2022-08-11T03:06:35.728Z,17.93
2022-08-11T03:09:38.315Z,17.96
2022-08-11T03:12:59.603Z,17.98
2022-08-11T03:16:40.523Z,18.11
2022-08-11T03:19:33.824Z,18.14
2022-08-11T03:22:41.110Z,17.98
2022-08-11T03:26:01.698Z,18.10
2022-08-11T03:29:06.119Z,18.17
2022-08-11T03:32:25.148Z,18.19
2022-08-11T03:35:21.158Z,18.15
2022-08-11T03:38:15.295Z,18.17
2022-08-11T03:42:01.949Z,18.16
2022-08-11T03:45:13.298Z,18.11
2022-08-11T03:48:11.809Z,18.06
2022-08-11T03:51:27.588Z,18.06
2022-08-11T03:55:07.513Z,17.88
2022-08-11T03:58:19.681Z,17.84
2022-08-11T04:01:37.861Z,17.80
2022-08-11T04:04:51.403Z,17.79
2022-08-11T04:08:03.467Z,17.74
2022-08-11T04:11:30.294Z,17.77
2022-08-11T04:15:08.060Z,17.64
2022-08-11T04:18:43.943Z,17.55
2022-08-11T04:22:08.613Z,17.43
2022-08-11T04:25:27.124Z,17.27
2022-08-11T04:28:49.759Z,17.13
2022-08-11T04:32:25.916Z,17.10
2022-08-11T04:35:58.152Z,17.18
2022-08-11T04:39:08.880Z,17.17
2022-08-11T04:42:53.671Z,17.12
2022-08-11T04:46:36.497Z,17.03
2022-08-11T04:50:14.549Z,16.88
2022-08-11T04:53:34.189Z,17.05
2022-08-11T04:56:45.133Z,17.03
2022-08-11T05:00:07.718Z,16.87
2022-08-11T05:03:49.938Z,16.90
2022-08-11T05:07:06.219Z,16.94
2022-08-11T05:10:42.968Z,17.09
2022-08-11T05:14:31.038Z,17.43
2022-08-11T05:17:55.779Z,17.63
2022-08-11T05:21:16.328Z,17.80
2022-08-11T05:24:31.085Z,18.19
2022-08-11T05:27:38.096Z,18.35
2022-08-11T05:30:49.739Z,18.62
2022-08-11T05:34:30.074Z,18.92
2022-08-11T05:37:34.370Z,19.16
2022-08-11T05:40:41.074Z,19.23
2022-08-11T05:44:20.963Z,19.50
2022-08-11T05:47:28.791Z,19.68
2022-08-11T05:50:37.753Z,20.02
2022-08-11T05:53:46.170Z,20.25
2022-08-11T05:56:50.919Z,20.58
2022-08-11T05:59:38.996Z,20.89
2022-08-11T06:02:28.389Z,21.24
2022-08-11T06:05:19.474Z,21.44
2022-08-11T06:08:09.194Z,21.71
2022-08-11T06:11:04.021Z,21.90
2022-08-11T06:13:52.999Z,22.15
2022-08-11T06:16:43.115Z,22.30
2022-08-11T06:19:38.955Z,22.63
2022-08-11T06:22:28.767Z,23.06
2022-08-11T06:25:17.614Z,23.27
2022-08-11T06:28:07.864Z,23.52
2022-08-11T06:30:56.258Z,23.85
2022-08-11T06:34:27.466Z,24.05
2022-08-11T06:37:27.350Z,24.02
2022-08-11T06:40:31.427Z,24.11
2022-08-11T06:43:23.339Z,24.41
2022-08-11T06:46:28.169Z,24.67
2022-08-11T06:49:38.070Z,24.73
2022-08-11T06:52:36.400Z,24.67
2022-08-11T06:55:55.518Z,24.44
2022-08-11T06:59:07.995Z,24.74
2022-08-11T07:02:07.191Z,24.99
2022-08-11T07:05:04.432Z,24.88
2022-08-11T07:08:33.051Z,25.13
2022-08-11T07:12:12.738Z,25.29
2022-08-11T07:15:23.505Z,25.42
2022-08-11T07:18:39.636Z,25.26
2022-08-11T07:22:00.873Z,25.21
2022-08-11T07:25:22.495Z,25.28
2022-08-11T07:28:41.816Z,25.24
2022-08-11T07:31:50.549Z,25.32
2022-08-11T07:34:46.265Z,25.03
2022-08-11T07:37:35.981Z,25.18
2022-08-11T07:40:25.121Z,25.44
2022-08-11T07:43:14.261Z,25.26
2022-08-11T07:46:23.389Z,25.15
2022-08-11T07:49:30.208Z,25.61
2022-08-11T07:52:30.882Z,25.92
2022-08-11T07:55:21.412Z,26.26
2022-08-11T07:58:53.182Z,26.50
2022-08-11T08:02:01.420Z,26.85
2022-08-11T08:05:08.573Z,27.10
2022-08-11T08:08:15.243Z,26.96
2022-08-11T08:11:27.426Z,26.93
2022-08-11T08:14:35.988Z,26.90
2022-08-11T08:17:43.268Z,27.11
2022-08-11T08:20:42.973Z,27.57
2022-08-11T08:23:34.064Z,27.44
2022-08-11T08:26:40.571Z,27.86
2022-08-11T08:29:52.726Z,28.62
2022-08-11T08:32:42.776Z,28.47
2022-08-11T08:35:33.060Z,28.79
2022-08-11T08:38:21.161Z,29.44
2022-08-11T08:41:10.326Z,30.00
2022-08-11T08:44:36.763Z,30.42
2022-08-11T08:47:41.873Z,30.36
2022-08-11T08:50:50.456Z,31.25
2022-08-11T08:53:51.801Z,31.75
2022-08-11T08:56:46.954Z,31.93
2022-08-11T08:59:49.030Z,32.48
2022-08-11T09:02:39.345Z,32.86
2022-08-11T09:05:27.386Z,33.84
2022-08-11T09:08:25.463Z,35.11
2022-08-11T09:11:34.492Z,34.90
2022-08-11T09:14:55.334Z,34.11
2022-08-11T09:18:06.042Z,33.08
2022-08-11T09:21:02.368Z,33.35
2022-08-11T09:24:19.147Z,34.21
2022-08-11T09:27:16.124Z,33.91
2022-08-11T09:30:06.819Z,33.86
2022-08-11T09:33:02.338Z,34.64
2022-08-11T09:35:58.849Z,36.19
2022-08-11T09:39:12.243Z,35.68
2022-08-11T09:42:04.546Z,35.26
2022-08-11T09:44:57.818Z,36.77
2022-08-11T09:47:55.156Z,37.38
2022-08-11T09:50:51.273Z,38.07
2022-08-11T09:54:02.851Z,38.51
2022-08-11T09:57:13.266Z,39.21
2022-08-11T10:00:09.540Z,38.35
2022-08-11T10:03:07.162Z,37.17
2022-08-11T10:06:17.483Z,35.05
2022-08-11T10:09:11.529Z,34.27
2022-08-11T10:12:04.791Z,34.42
2022-08-11T10:15:21.545Z,34.24
2022-08-11T10:18:33.891Z,34.12
2022-08-11T10:21:40.035Z,34.42
2022-08-11T10:24:51.601Z,35.13
2022-08-11T10:28:17.806Z,36.73
2022-08-11T10:31:16.679Z,36.56
2022-08-11T10:34:10.673Z,35.69
2022-08-11T10:37:05.652Z,36.48
2022-08-11T10:40:04.094Z,37.19
2022-08-11T10:43:13.422Z,34.70
2022-08-11T10:46:29.776Z,33.34
2022-08-11T10:49:22.818Z,32.76
2022-08-11T10:52:29.830Z,31.41
2022-08-11T10:55:36.727Z,30.00
2022-08-11T10:58:43.379Z,29.63
2022-08-11T11:01:36.535Z,29.85
2022-08-11T11:04:45.592Z,29.31
2022-08-11T11:08:30.293Z,29.09
2022-08-11T11:11:21.721Z,28.98
2022-08-11T11:14:28.809Z,28.97
2022-08-11T11:17:46.111Z,28.97
2022-08-11T11:20:47.978Z,29.08
2022-08-11T11:24:13.290Z,29.22
2022-08-11T11:27:36.944Z,28.57
2022-08-11T11:31:25.665Z,28.49
2022-08-11T11:34:58.279Z,28.32
2022-08-11T11:37:56.234Z,28.40
2022-08-11T11:41:13.323Z,28.56
2022-08-11T11:44:04.574Z,28.54
2022-08-11T11:46:53.045Z,28.64
2022-08-11T11:49:44.007Z,28.50
2022-08-11T11:52:35.318Z,28.39
2022-08-11T11:55:25.551Z,28.24
2022-08-11T11:58:32.620Z,28.41
2022-08-11T12:01:24.173Z,28.20
2022-08-11T12:04:14.126Z,28.40
2022-08-11T12:07:22.231Z,28.39
2022-08-11T12:10:10.571Z,28.35
2022-08-11T12:13:35.513Z,28.63
2022-08-11T12:16:33.390Z,28.58
2022-08-11T12:19:35.923Z,28.55
2022-08-11T12:22:42.706Z,28.74
2022-08-11T12:25:59.597Z,28.83
2022-08-11T12:28:59.762Z,28.77
2022-08-11T12:31:49.229Z,28.72
2022-08-11T12:34:37.177Z,28.84
2022-08-11T12:37:30.946Z,28.84
2022-08-11T12:41:12.172Z,28.83
2022-08-11T12:44:10.736Z,28.95
2022-08-11T12:47:02.049Z,29.09
2022-08-11T12:50:21.692Z,29.11
2022-08-11T12:53:13.039Z,29.05
2022-08-11T12:56:24.788Z,29.01
2022-08-11T12:59:31.570Z,29.09
2022-08-11T13:02:44.373Z,28.96
2022-08-11T13:05:33.180Z,29.03
2022-08-11T13:08:29.856Z,28.99
2022-08-11T13:11:56.698Z,29.01
2022-08-11T13:14:48.030Z,29.03
2022-08-11T13:17:43.713Z,29.04
2022-08-11T13:20:32.433Z,29.05
2022-08-11T13:23:20.640Z,29.18
2022-08-11T13:26:08.947Z,29.07
2022-08-11T13:28:57.154Z,29.26
2022-08-11T13:31:46.392Z,29.37
2022-08-11T13:34:41.521Z,29.29
2022-08-11T13:38:19.474Z,29.30
2022-08-11T13:40:55.127Z,29.16
2022-08-11T13:43:46.491Z,29.20
2022-08-11T13:46:34.791Z,29.50
2022-08-11T13:49:23.545Z,29.35
2022-08-11T13:52:15.781Z,29.36
2022-08-11T13:55:04.099Z,29.44
2022-08-11T13:58:19.331Z,29.37
2022-08-11T14:02:03.980Z,29.53
2022-08-11T14:04:40.031Z,29.53
2022-08-11T14:07:46.441Z,29.56
2022-08-11T14:10:38.207Z,29.40
2022-08-11T14:13:41.345Z,29.39
2022-08-11T14:16:33.894Z,29.43
2022-08-11T14:19:26.829Z,29.45
2022-08-11T14:22:18.942Z,29.53
2022-08-11T14:25:07.242Z,29.46
2022-08-11T14:28:32.697Z,29.56
2022-08-11T14:31:08.423Z,29.54
2022-08-11T14:34:03.350Z,29.53
2022-08-11T14:37:00.424Z,29.46
2022-08-11T14:39:58.232Z,29.47
2022-08-11T14:43:07.734Z,29.64
2022-08-11T14:46:15.892Z,29.63
2022-08-11T14:49:04.525Z,29.62
2022-08-11T14:51:57.083Z,29.64
2022-08-11T14:55:10.501Z,29.80
2022-08-11T14:57:59.910Z,29.69
2022-08-11T15:00:53.191Z,29.82
2022-08-11T15:03:41.250Z,29.88
2022-08-11T15:06:49.062Z,29.89
2022-08-11T15:09:56.057Z,29.73
2022-08-11T15:12:50.016Z,29.83
2022-08-11T15:15:56.534Z,29.75
2022-08-11T15:18:44.454Z,29.70
2022-08-11T15:21:53.600Z,29.75
2022-08-11T15:24:41.568Z,29.86
2022-08-11T15:27:50.078Z,29.83
2022-08-11T15:30:57.502Z,29.73
2022-08-11T15:34:04.766Z,29.87
2022-08-11T15:37:18.690Z,29.83
2022-08-11T15:40:34.926Z,29.87
2022-08-11T15:44:13.363Z,29.73
2022-08-11T15:47:08.241Z,29.77
2022-08-11T15:50:10.760Z,29.76
2022-08-11T15:53:18.421Z,29.83
2022-08-11T15:56:07.084Z,29.95
2022-08-11T15:59:41.931Z,30.02
2022-08-11T16:02:45.311Z,29.99
2022-08-11T16:05:46.014Z,29.95
2022-08-11T16:08:37.783Z,29.91
2022-08-11T16:11:27.386Z,30.05
2022-08-11T16:14:35.649Z,30.05
2022-08-11T16:17:28.302Z,30.02
2022-08-11T16:20:24.832Z,29.97
2022-08-11T16:23:16.132Z,29.96
2022-08-11T16:27:11.491Z,29.96
2022-08-11T16:29:19.802Z,29.92
2022-08-11T16:32:16.937Z,29.88
2022-08-11T16:35:29.967Z,29.88
2022-08-11T16:38:41.763Z,29.91
2022-08-11T16:41:52.571Z,29.92
2022-08-11T16:44:59.058Z,29.81
2022-08-11T16:48:03.198Z,29.83
2022-08-11T16:51:00.929Z,29.68
2022-08-11T16:54:04.696Z,29.64
2022-08-11T16:57:14.790Z,29.72
2022-08-11T17:00:13.054Z,29.85
2022-08-11T17:03:21.756Z,29.78
2022-08-11T17:06:29.359Z,29.68
2022-08-11T17:09:43.195Z,29.81
2022-08-11T17:12:50.719Z,29.89
2022-08-11T17:16:11.699Z,29.83
2022-08-11T17:19:17.229Z,29.94
2022-08-11T17:22:26.522Z,29.68
2022-08-11T17:25:16.496Z,29.80
2022-08-11T17:28:05.853Z,29.71
2022-08-11T17:31:21.922Z,29.70
2022-08-11T17:34:30.334Z,29.73
2022-08-11T17:37:20.306Z,29.74
2022-08-11T17:40:14.037Z,29.72
2022-08-11T17:43:20.648Z,29.54
2022-08-11T17:46:29.901Z,29.59
2022-08-11T17:49:20.381Z,29.61
2022-08-11T17:52:31.875Z,29.54
2022-08-11T17:55:51.874Z,29.60
2022-08-11T17:59:00.146Z,29.48
2022-08-11T18:01:54.084Z,29.39
2022-08-11T18:04:48.032Z,29.33
2022-08-11T18:07:56.228Z,29.21
2022-08-11T18:11:07.654Z,29.18
2022-08-11T18:14:19.117Z,29.12
2022-08-11T18:17:26.019Z,28.99
2022-08-11T18:20:32.309Z,28.98
2022-08-11T18:23:46.217Z,28.81
2022-08-11T18:26:53.181Z,28.68
2022-08-11T18:30:01.465Z,28.65
2022-08-11T18:33:44.922Z,28.66
2022-08-11T18:36:46.603Z,28.32
2022-08-11T18:40:00.298Z,28.31
2022-08-11T18:43:08.484Z,28.07
2022-08-11T18:46:24.018Z,27.89
2022-08-11T18:50:02.306Z,27.57
2022-08-11T18:53:10.683Z,27.30
2022-08-11T18:56:18.121Z,27.22
2022-08-11T18:59:26.786Z,27.13
2022-08-11T19:02:48.659Z,27.00
2022-08-11T19:06:35.387Z,26.88
2022-08-11T19:09:31.961Z,26.80
2022-08-11T19:12:40.424Z,26.68
2022-08-11T19:15:48.079Z,26.49
2022-08-11T19:18:55.820Z,26.33
2022-08-11T19:22:03.204Z,26.25
2022-08-11T19:25:11.537Z,26.23
2022-08-11T19:28:18.950Z,26.13
2022-08-11T19:31:28.162Z,25.94
2022-08-11T19:34:37.790Z,25.88
2022-08-11T19:37:45.523Z,25.79
2022-08-11T19:40:54.007Z,25.72
2022-08-11T19:44:01.196Z,25.64
2022-08-11T19:47:09.492Z,25.59
2022-08-11T19:50:21.889Z,25.46
2022-08-11T19:53:31.774Z,25.36
2022-08-11T19:56:39.166Z,25.20
2022-08-11T19:59:46.403Z,25.31
2022-08-11T20:02:55.678Z,25.17
2022-08-11T20:06:02.208Z,25.08
2022-08-11T20:09:09.899Z,25.00
2022-08-11T20:12:20.290Z,24.96
2022-08-11T20:15:31.684Z,24.76
2022-08-11T20:18:39.153Z,24.72
2022-08-11T20:21:47.357Z,24.69
2022-08-11T20:24:56.655Z,24.66
2022-08-11T20:28:05.126Z,24.67
2022-08-11T20:31:12.946Z,24.61
2022-08-11T20:34:20.431Z,24.60
2022-08-11T20:37:26.983Z,24.58
2022-08-11T20:40:35.357Z,24.49
2022-08-11T20:44:05.713Z,24.48
2022-08-11T20:47:13.233Z,24.41
2022-08-11T20:50:20.951Z,24.26
2022-08-11T20:53:29.486Z,24.27
2022-08-11T20:56:38.225Z,24.34
2022-08-11T20:59:50.203Z,24.19
2022-08-11T21:03:06.000Z,24.17
2022-08-11T21:06:13.348Z,24.04
2022-08-11T21:10:00.919Z,23.93
2022-08-11T21:12:55.621Z,23.91
2022-08-11T21:16:03.597Z,23.90
2022-08-11T21:19:59.661Z,23.81
2022-08-11T21:23:28.721Z,23.69
2022-08-11T21:26:39.600Z,23.63
2022-08-11T21:29:47.932Z,23.63
2022-08-11T21:32:55.791Z,23.45
2022-08-11T21:36:02.073Z,23.37
2022-08-11T21:39:11.935Z,23.26
2022-08-11T21:42:20.298Z,23.11
2022-08-11T21:45:29.166Z,23.02
2022-08-11T21:48:38.576Z,23.08
2022-08-11T21:51:44.846Z,23.02
2022-08-11T21:54:51.622Z,22.97
2022-08-11T21:57:59.077Z,22.87
2022-08-11T22:01:06.255Z,22.84
2022-08-11T22:04:14.041Z,22.78
2022-08-11T22:07:21.909Z,22.68
2022-08-11T22:10:42.238Z,22.65
2022-08-11T22:14:05.800Z,22.54
2022-08-11T22:17:14.080Z,22.60
2022-08-11T22:20:20.966Z,22.49
2022-08-11T22:23:35.839Z,22.44
2022-08-11T22:26:47.551Z,22.42
2022-08-11T22:29:54.113Z,22.44
2022-08-11T22:33:02.506Z,22.38
2022-08-11T22:36:10.035Z,22.32
2022-08-11T22:39:18.658Z,22.34
2022-08-11T22:42:33.630Z,22.27
2022-08-11T22:45:40.538Z,22.13
2022-08-11T22:48:50.554Z,22.12
2022-08-11T22:51:58.658Z,22.16
2022-08-11T22:55:06.042Z,22.17
2022-08-11T22:58:15.866Z,22.10
2022-08-11T23:01:22.568Z,22.07
2022-08-11T23:04:30.836Z,22.32
2022-08-11T23:07:51.184Z,22.30
2022-08-11T23:10:59.260Z,22.24
2022-08-11T23:14:06.202Z,22.08
2022-08-11T23:17:13.498Z,22.15
2022-08-11T23:20:39.986Z,22.06
2022-08-11T23:23:48.429Z,21.99
2022-08-11T23:26:57.130Z,21.97
2022-08-11T23:30:04.844Z,21.92
2022-08-11T23:33:17.147Z,21.86
2022-08-11T23:36:35.707Z,21.75
2022-08-11T23:39:50.163Z,21.62
2022-08-11T23:42:58.167Z,21.67
2022-08-11T23:46:04.580Z,21.61
2022-08-11T23:49:21.764Z,21.64
2022-08-11T23:52:28.757Z,21.43
2022-08-11T23:55:34.965Z,21.46
2022-08-11T23:58:41.570Z,21.38
